Time;durP1;ratioP1;P1;durP2;ratioP2;P2;SDS_P1;SDS_P2;PMS_P1;PMS_P2;Temp;Humidity;BMP_temperature;BMP_pressure;BME280_temperature;BME280_humidity;BME280_pressure;Samples;Min_cycle;Max_cycle;Signal;HPM_P1;HPM_P2
2022/03/28 00:01:08;;;;;;;;;;;5.90;99.90;;;;;;5178852;27;20404;-71
2022/03/28 00:03:33;;;;;;;;;;;6.30;99.90;;;;;;5178810;27;19929;-71
2022/03/28 00:05:59;;;;;;;;;;;6.60;99.90;;;;;;5160435;27;19974;-71
2022/03/28 00:08:24;;;;;;;;;;;5.90;99.90;;;;;;5160309;27;19946;-74
2022/03/28 00:10:50;;;;;;;;;;;5.90;99.90;;;;;;5178850;27;19929;-71
2022/03/28 00:13:15;;;;;;;;;;;5.60;99.90;;;;;;5160451;27;19927;-72
2022/03/28 00:15:41;;;;;;;;;;;7.20;99.90;;;;;;5178640;27;19930;-74
2022/03/28 00:18:08;;;;;;;;;;;5.90;99.90;;;;;;5178686;27;19926;-70
2022/03/28 00:20:34;;;;;;;;;;;6.10;99.90;;;;;;5159767;27;20389;-71
2022/03/28 00:22:59;;;;;;;;;;;6.90;99.90;;;;;;5160251;27;19930;-71
2022/03/28 00:25:25;;;;;;;;;;;6.60;99.90;;;;;;5178676;27;19982;-71
2022/03/28 00:27:50;;;;;;;;;;;6.90;99.90;;;;;;5178562;27;19967;-73
2022/03/28 00:30:16;;;;;;;;;;;5.90;99.90;;;;;;5178635;27;19930;-70
2022/03/28 00:32:42;;;;;;;;;;;5.10;99.90;;;;;;5159904;27;19922;-70
2022/03/28 00:35:07;;;;;;;;;;;6.60;99.90;;;;;;5178247;27;19923;-71
2022/03/28 00:37:33;;;;;;;;;;;5.80;99.90;;;;;;5178034;27;19923;-70
2022/03/28 00:39:59;;;;;;;;;;;6.20;99.90;;;;;;5159724;27;19974;-71
2022/03/28 00:42:25;;;;;;;;;;;5.80;99.90;;;;;;5178237;27;20308;-72
2022/03/28 00:44:51;;;;;;;;;;;6.00;99.90;;;;;;5178169;27;19923;-73
2022/03/28 00:47:16;;;;;;;;;;;5.80;99.90;;;;;;5178151;27;19923;-71
2022/03/28 00:49:42;;;;;;;;;;;5.80;99.90;;;;;;5159412;27;19929;-71
2022/03/28 00:52:09;;;;;;;;;;;5.80;99.90;;;;;;5158840;27;19923;-73
2022/03/28 00:54:34;;;;;;;;;;;5.80;99.90;;;;;;5159116;27;19971;-70
2022/03/28 00:57:01;;;;;;;;;;;7.10;99.90;;;;;;5177398;27;20337;-71
2022/03/28 00:59:27;;;;;;;;;;;5.70;99.90;;;;;;5177813;27;20013;-71
2022/03/28 01:01:52;;;;;;;;;;;5.70;99.90;;;;;;5159284;27;20010;-71
2022/03/28 01:04:18;;;;;;;;;;;6.30;99.90;;;;;;5142251;27;20404;-71
2022/03/28 01:06:44;;;;;;;;;;;5.90;99.90;;;;;;5158833;27;20305;-71
2022/03/28 01:09:09;;;;;;;;;;;6.30;99.90;;;;;;5177399;27;19930;-73
2022/03/28 01:11:35;;;;;;;;;;;6.30;99.90;;;;;;5159100;27;19922;-70
2022/03/28 01:14:01;;;;;;;;;;;4.40;99.90;;;;;;5177614;27;19923;-73
2022/03/28 01:16:29;;;;;;;;;;;5.70;99.90;;;;;;5177454;27;19923;-71
2022/03/28 01:18:55;;;;;;;;;;;5.80;99.90;;;;;;5177385;27;19923;-71
2022/03/28 01:21:21;;;;;;;;;;;7.30;99.90;;;;;;5177224;27;20295;-71
2022/03/28 01:23:46;;;;;;;;;;;5.80;99.90;;;;;;5177207;27;19934;-73
2022/03/28 01:26:13;;;;;;;;;;;5.80;99.90;;;;;;5158626;27;19929;-71
2022/03/28 01:28:38;;;;;;;;;;;5.90;99.90;;;;;;5177337;27;19923;-72
2022/03/28 01:31:04;;;;;;;;;;;5.90;99.90;;;;;;5177317;27;19933;-74
2022/03/28 01:33:29;;;;;;;;;;;5.80;99.90;;;;;;5158559;27;19922;-73
2022/03/28 01:35:55;;;;;;;;;;;7.40;99.90;;;;;;5158342;27;19975;-70
2022/03/28 01:38:21;;;;;;;;;;;6.00;99.90;;;;;;5177011;27;19922;-71
2022/03/28 01:40:48;;;;;;;;;;;6.10;99.90;;;;;;5176780;27;19923;-71
2022/03/28 01:43:14;;;;;;;;;;;5.80;99.90;;;;;;5177092;27;19930;-71
2022/03/28 01:45:40;;;;;;;;;;;6.70;99.90;;;;;;5176997;27;19930;-71
2022/03/28 01:48:06;;;;;;;;;;;7.00;99.90;;;;;;5176867;27;19927;-71
2022/03/28 01:50:32;;;;;;;;;;;5.70;99.90;;;;;;5158547;27;19930;-73
2022/03/28 01:52:57;;;;;;;;;;;5.40;99.90;;;;;;5176547;27;19923;-71
2022/03/28 01:55:23;;;;;;;;;;;5.80;99.90;;;;;;5158080;27;19926;-71
2022/03/28 01:57:49;;;;;;;;;;;5.80;99.90;;;;;;5176769;27;20400;-71
2022/03/28 02:00:17;;;;;;;;;;;5.80;99.90;;;;;;5176378;27;19922;-70
2022/03/28 02:02:43;;;;;;;;;;;5.80;99.90;;;;;;5176634;27;19929;-73
2022/03/28 02:05:11;;;;;;;;;;;6.60;99.90;;;;;;5176599;27;19922;-70
2022/03/28 02:07:37;;;;;;;;;;;6.00;99.90;;;;;;5176325;27;19923;-70
2022/03/28 02:10:03;;;;;;;;;;;6.20;99.90;;;;;;5175573;27;19923;-72
2022/03/28 02:12:28;;;;;;;;;;;5.80;99.90;;;;;;5158279;27;19923;-71
2022/03/28 02:14:54;;;;;;;;;;;5.80;99.90;;;;;;5158164;27;20377;-71
2022/03/28 02:17:19;;;;;;;;;;;5.80;99.90;;;;;;5176710;27;19944;-71
2022/03/28 02:19:46;;;;;;;;;;;6.70;99.90;;;;;;5176402;27;19923;-72
2022/03/28 02:22:11;;;;;;;;;;;5.80;99.90;;;;;;5176474;27;19929;-70
2022/03/28 02:24:37;;;;;;;;;;;6.50;99.90;;;;;;5176240;27;20017;-73
2022/03/28 02:27:02;;;;;;;;;;;7.00;99.90;;;;;;5176206;27;20296;-73
2022/03/28 02:29:28;;;;;;;;;;;5.70;99.90;;;;;;5176497;27;19930;-71
2022/03/28 02:31:54;;;;;;;;;;;5.70;99.90;;;;;;5176376;27;19934;-73
2022/03/28 02:34:19;;;;;;;;;;;4.00;99.90;;;;;;5157942;27;19930;-72
2022/03/28 02:36:45;;;;;;;;;;;5.70;99.90;;;;;;5176114;27;19930;-71
2022/03/28 02:39:11;;;;;;;;;;;6.00;99.90;;;;;;5140276;27;20400;-70
2022/03/28 02:41:37;;;;;;;;;;;5.80;99.90;;;;;;5176055;27;20395;-72
2022/03/28 02:44:03;;;;;;;;;;;5.80;99.90;;;;;;5176329;27;20040;-71
2022/03/28 02:46:28;;;;;;;;;;;5.80;99.90;;;;;;5176300;27;20416;-71
2022/03/28 02:48:54;;;;;;;;;;;5.80;99.90;;;;;;5176153;27;20384;-73
2022/03/28 02:51:19;;;;;;;;;;;5.80;99.90;;;;;;5176033;27;20255;-71
2022/03/28 02:53:45;;;;;;;;;;;6.60;99.90;;;;;;5175999;27;19923;-71
2022/03/28 02:56:10;;;;;;;;;;;5.80;99.90;;;;;;5175931;27;19967;-71
2022/03/28 02:58:36;;;;;;;;;;;5.80;99.90;;;;;;5175934;27;19929;-70
2022/03/28 03:01:02;;;;;;;;;;;5.80;99.90;;;;;;5176030;27;19923;-71
2022/03/28 03:03:27;;;;;;;;;;;5.80;99.90;;;;;;5175934;27;19930;-71
2022/03/28 03:05:53;;;;;;;;;;;4.10;99.90;;;;;;5175872;27;20017;-70
2022/03/28 03:08:18;;;;;;;;;;;5.80;99.90;;;;;;5175966;27;19923;-71
2022/03/28 03:10:44;;;;;;;;;;;6.50;99.90;;;;;;5157555;27;19927;-71
2022/03/28 03:13:09;;;;;;;;;;;5.70;99.90;;;;;;5157327;27;20378;-70
2022/03/28 03:15:36;;;;;;;;;;;5.70;99.90;;;;;;5175810;27;19923;-71
2022/03/28 03:18:03;;;;;;;;;;;6.00;99.90;;;;;;5175841;27;20384;-71
2022/03/28 03:20:28;;;;;;;;;;;5.60;99.90;;;;;;5176759;27;20481;-72
2022/03/28 03:22:54;;;;;;;;;;;5.40;99.90;;;;;;5179685;27;19942;-73
2022/03/28 03:25:19;;;;;;;;;;;5.60;99.90;;;;;;5179518;27;19922;-72
2022/03/28 03:27:45;;;;;;;;;;;5.50;99.90;;;;;;5160945;27;19923;-71
2022/03/28 03:30:11;;;;;;;;;;;6.00;99.90;;;;;;5179768;27;19922;-70
2022/03/28 03:32:37;;;;;;;;;;;5.50;99.90;;;;;;5179647;27;19922;-69
2022/03/28 03:35:03;;;;;;;;;;;5.80;99.90;;;;;;5160979;27;20385;-71
2022/03/28 03:37:28;;;;;;;;;;;5.40;99.90;;;;;;5179354;27;20361;-70
2022/03/28 03:39:54;;;;;;;;;;;6.60;99.90;;;;;;5179364;27;19934;-71
2022/03/28 03:42:20;;;;;;;;;;;7.10;99.90;;;;;;5179242;27;19922;-71
2022/03/28 03:44:45;;;;;;;;;;;5.40;99.90;;;;;;5179174;27;19923;-73
2022/03/28 03:47:11;;;;;;;;;;;6.40;99.90;;;;;;5179351;27;19930;-71
2022/03/28 03:49:37;;;;;;;;;;;5.40;99.90;;;;;;5179342;27;19945;-71
2022/03/28 03:52:02;;;;;;;;;;;5.40;99.90;;;;;;5179003;27;19922;-70
2022/03/28 03:54:28;;;;;;;;;;;5.40;99.90;;;;;;5179082;27;19976;-71
2022/03/28 03:56:54;;;;;;;;;;;6.00;99.90;;;;;;5160641;27;19982;-71
2022/03/28 03:59:19;;;;;;;;;;;5.30;99.90;;;;;;5178666;27;20289;-71
2022/03/28 04:01:45;;;;;;;;;;;5.40;99.90;;;;;;5179105;27;19927;-70
2022/03/28 04:04:12;;;;;;;;;;;5.40;99.90;;;;;;5178942;27;19930;-72
2022/03/28 04:06:38;;;;;;;;;;;5.30;99.90;;;;;;5178885;27;20294;-71
2022/03/28 04:09:04;;;;;;;;;;;5.90;99.90;;;;;;5160491;27;19934;-70
2022/03/28 04:11:29;;;;;;;;;;;5.30;99.90;;;;;;5160400;27;19922;-70
2022/03/28 04:13:57;;;;;;;;;;;5.40;99.90;;;;;;5160324;27;19923;-71
2022/03/28 04:16:23;;;;;;;;;;;6.50;99.90;;;;;;5160162;27;19929;-73
2022/03/28 04:18:48;;;;;;;;;;;5.30;99.90;;;;;;5178507;27;20308;-72
2022/03/28 04:21:14;;;;;;;;;;;5.60;99.90;;;;;;5142853;27;19923;-70
2022/03/28 04:23:39;;;;;;;;;;;5.90;99.90;;;;;;5178484;27;20430;-71
2022/03/28 04:26:05;;;;;;;;;;;5.20;99.90;;;;;;5159744;27;19930;-72
2022/03/28 04:28:30;;;;;;;;;;;5.20;99.90;;;;;;5178371;27;19968;-71
2022/03/28 04:30:56;;;;;;;;;;;6.30;99.90;;;;;;5178272;27;20391;-71
2022/03/28 04:33:22;;;;;;;;;;;5.20;99.90;;;;;;5159244;27;19929;-71
2022/03/28 04:35:47;;;;;;;;;;;5.30;99.90;;;;;;5159231;27;19929;-71
2022/03/28 04:38:13;;;;;;;;;;;5.70;99.90;;;;;;5178214;27;19950;-72
2022/03/28 04:40:39;;;;;;;;;;;5.90;99.90;;;;;;5178164;27;19923;-72
2022/03/28 04:43:05;;;;;;;;;;;5.80;99.90;;;;;;5178053;27;19927;-70
2022/03/28 04:45:30;;;;;;;;;;;5.70;99.90;;;;;;5177916;27;20065;-70
2022/03/28 04:47:57;;;;;;;;;;;6.60;99.90;;;;;;5178274;27;19930;-71
2022/03/28 04:50:22;;;;;;;;;;;5.20;99.90;;;;;;5178110;27;19966;-71
2022/03/28 04:52:48;;;;;;;;;;;5.20;99.90;;;;;;5159474;27;20326;-70
2022/03/28 04:55:13;;;;;;;;;;;5.30;99.90;;;;;;5177931;27;20028;-71
2022/03/28 04:57:39;;;;;;;;;;;5.30;99.90;;;;;;5177781;27;19946;-70
2022/03/28 05:00:06;;;;;;;;;;;4.70;99.90;;;;;;5177758;27;20009;-72
2022/03/28 05:02:32;;;;;;;;;;;5.30;99.90;;;;;;5159550;27;19930;-70
2022/03/28 05:04:58;;;;;;;;;;;5.30;99.90;;;;;;5158983;27;19930;-74
2022/03/28 05:07:24;;;;;;;;;;;5.30;99.90;;;;;;5177662;27;20301;-73
2022/03/28 05:09:50;;;;;;;;;;;6.60;99.90;;;;;;5177624;27;19923;-73
2022/03/28 05:12:15;;;;;;;;;;;5.30;99.90;;;;;;5177538;27;19923;-73
2022/03/28 05:14:41;;;;;;;;;;;5.30;99.90;;;;;;5177378;27;19974;-71
2022/03/28 05:17:07;;;;;;;;;;;5.50;99.90;;;;;;5158979;27;20025;-70
2022/03/28 05:19:32;;;;;;;;;;;5.30;99.90;;;;;;5177612;27;19966;-71
2022/03/28 05:21:58;;;;;;;;;;;5.60;99.90;;;;;;5148472;27;19923;-71
2022/03/28 05:24:24;;;;;;;;;;;5.50;99.90;;;;;;5156455;27;19930;-71
2022/03/28 05:26:49;;;;;;;;;;;5.50;99.90;;;;;;5156258;27;19923;-71
2022/03/28 05:29:15;;;;;;;;;;;5.20;99.90;;;;;;5156273;27;19923;-71
2022/03/28 05:31:41;;;;;;;;;;;5.20;99.90;;;;;;5156198;27;19923;-71
2022/03/28 05:34:07;;;;;;;;;;;5.20;99.90;;;;;;5156396;27;20285;-70
2022/03/28 05:36:32;;;;;;;;;;;6.90;99.90;;;;;;5156105;27;19930;-70
2022/03/28 05:38:58;;;;;;;;;;;5.20;99.90;;;;;;5156227;27;20017;-71
2022/03/28 05:41:23;;;;;;;;;;;5.20;99.90;;;;;;5156167;27;20389;-71
2022/03/28 05:43:49;;;;;;;;;;;5.20;99.90;;;;;;5155823;27;19930;-72
2022/03/28 05:46:18;;;;;;;;;;;5.10;99.90;;;;;;5155890;27;20017;-71
2022/03/28 05:48:43;;;;;;;;;;;5.10;99.90;;;;;;5137721;27;19923;-71
2022/03/28 05:51:09;;;;;;;;;;;5.10;99.90;;;;;;5155751;27;19923;-70
2022/03/28 05:53:35;;;;;;;;;;;5.30;99.90;;;;;;5137461;27;19930;-70
2022/03/28 05:56:03;;;;;;;;;;;5.40;99.90;;;;;;5155689;27;19925;-72
2022/03/28 05:58:29;;;;;;;;;;;5.30;99.90;;;;;;5137430;27;19930;-73
2022/03/28 06:00:55;;;;;;;;;;;5.30;99.90;;;;;;5155923;27;20415;-69
2022/03/28 06:03:21;;;;;;;;;;;5.00;99.90;;;;;;5155557;27;19930;-73
2022/03/28 06:05:47;;;;;;;;;;;4.90;99.90;;;;;;5155810;27;19923;-70
2022/03/28 06:08:13;;;;;;;;;;;6.40;99.90;;;;;;5155496;27;19927;-70
2022/03/28 06:10:38;;;;;;;;;;;5.10;99.90;;;;;;5155436;27;20047;-71
2022/03/28 06:13:04;;;;;;;;;;;5.40;99.90;;;;;;5135891;27;20047;-72
2022/03/28 06:15:32;;;;;;;;;;;5.10;99.90;;;;;;5156023;27;20370;-70
2022/03/28 06:17:58;;;;;;;;;;;5.00;99.90;;;;;;5155264;27;19966;-72
2022/03/28 06:20:23;;;;;;;;;;;5.60;99.90;;;;;;5155509;27;19973;-71
2022/03/28 06:22:49;;;;;;;;;;;5.00;99.90;;;;;;5154929;27;19923;-70
2022/03/28 06:25:16;;;;;;;;;;;5.00;99.90;;;;;;5155393;27;19927;-70
2022/03/28 06:27:42;;;;;;;;;;;4.90;99.90;;;;;;5155287;27;20374;-71
2022/03/28 06:30:11;;;;;;;;;;;5.00;99.90;;;;;;5155379;27;19945;-70
2022/03/28 06:32:38;;;;;;;;;;;4.90;99.90;;;;;;5155261;27;19924;-70
2022/03/28 06:35:05;;;;;;;;;;;4.80;99.90;;;;;;5155294;27;20014;-70
2022/03/28 06:37:31;;;;;;;;;;;4.80;99.90;;;;;;5155360;27;19981;-71
2022/03/28 06:39:56;;;;;;;;;;;4.80;99.90;;;;;;5155495;27;19974;-73
2022/03/28 06:42:22;;;;;;;;;;;4.80;99.90;;;;;;5136800;27;20010;-71
2022/03/28 06:44:47;;;;;;;;;;;4.80;99.90;;;;;;5136949;27;20370;-70
2022/03/28 06:47:13;;;;;;;;;;;6.20;99.90;;;;;;5155127;27;19923;-70
2022/03/28 06:49:39;;;;;;;;;;;4.80;99.90;;;;;;5155061;27;19923;-73
2022/03/28 06:52:05;;;;;;;;;;;6.30;99.90;;;;;;5136616;27;19927;-70
2022/03/28 06:54:30;;;;;;;;;;;4.90;99.90;;;;;;5155388;27;19929;-69
2022/03/28 06:56:56;;;;;;;;;;;4.90;99.90;;;;;;5158783;27;19923;-70
2022/03/28 06:59:23;;;;;;;;;;;4.80;99.90;;;;;;5158737;27;19976;-70
2022/03/28 07:01:49;;;;;;;;;;;4.80;99.90;;;;;;5140840;27;19927;-70
2022/03/28 07:04:15;;;;;;;;;;;4.80;99.90;;;;;;5158865;27;19931;-70
2022/03/28 07:06:41;;;;;;;;;;;4.90;99.90;;;;;;5140542;27;19976;-72
2022/03/28 07:09:06;;;;;;;;;;;4.90;99.90;;;;;;5157692;27;20369;-70
2022/03/28 07:11:34;;;;;;;;;;;5.50;99.90;;;;;;5159031;27;20313;-70
2022/03/28 07:14:00;;;;;;;;;;;5.00;99.90;;;;;;5123424;27;19979;-70
2022/03/28 07:16:26;;;;;;;;;;;5.20;99.90;;;;;;5158891;27;19923;-72
2022/03/28 07:18:52;;;;;;;;;;;5.50;99.90;;;;;;5158746;27;20022;-71
2022/03/28 07:21:36;;;;;;;;;;;5.00;99.90;;;;;;5139953;27;19930;-71
2022/03/28 07:24:01;;;;;;;;;;;5.00;99.90;;;;;;5140638;27;19923;-70
2022/03/28 07:26:27;;;;;;;;;;;6.50;99.90;;;;;;5158707;27;20252;-72
2022/03/28 07:28:52;;;;;;;;;;;5.70;99.90;;;;;;5158763;27;20381;-71
2022/03/28 07:31:18;;;;;;;;;;;5.10;99.90;;;;;;5158513;27;20289;-70
2022/03/28 07:33:44;;;;;;;;;;;5.30;99.90;;;;;;5158382;27;19923;-70
2022/03/28 07:36:10;;;;;;;;;;;5.10;99.90;;;;;;5139842;27;20454;-69
2022/03/28 07:38:36;;;;;;;;;;;5.10;99.90;;;;;;5152993;27;19931;-71
2022/03/28 07:41:03;;;;;;;;;;;5.10;99.90;;;;;;5156016;27;19923;-73
2022/03/28 07:43:28;;;;;;;;;;;5.90;99.90;;;;;;5137893;27;19923;-72
2022/03/28 07:45:54;;;;;;;;;;;5.20;99.90;;;;;;5128989;27;19933;-71
2022/03/28 07:48:21;;;;;;;;;;;6.50;99.90;;;;;;5122356;27;19927;-70
2022/03/28 07:50:47;;;;;;;;;;;5.30;99.90;;;;;;5137387;27;19949;-71
2022/03/28 07:53:13;;;;;;;;;;;5.40;99.90;;;;;;5137463;27;20022;-70
2022/03/28 07:55:39;;;;;;;;;;;5.40;99.90;;;;;;5137365;27;20014;-71
2022/03/28 07:58:06;;;;;;;;;;;5.40;99.90;;;;;;5137276;27;19930;-70
2022/03/28 08:00:31;;;;;;;;;;;5.50;99.90;;;;;;5126346;27;19924;-70
2022/03/28 08:02:57;;;;;;;;;;;5.50;99.90;;;;;;5116545;28;19930;-70
2022/03/28 08:05:23;;;;;;;;;;;5.50;99.90;;;;;;5116715;28;20282;-69
2022/03/28 08:07:50;;;;;;;;;;;5.50;99.90;;;;;;5115976;27;19923;-71
2022/03/28 08:10:16;;;;;;;;;;;6.00;99.90;;;;;;5116919;27;19923;-71
2022/03/28 08:12:43;;;;;;;;;;;5.60;99.90;;;;;;5098415;28;20319;-70
2022/03/28 08:15:10;;;;;;;;;;;5.60;99.90;;;;;;5116354;28;20015;-72
2022/03/28 08:17:36;;;;;;;;;;;5.60;99.90;;;;;;5098405;28;19978;-70
2022/03/28 08:20:03;;;;;;;;;;;5.90;99.90;;;;;;5116176;28;20374;-70
2022/03/28 08:22:29;;;;;;;;;;;5.60;99.90;;;;;;5116314;28;20371;-70
2022/03/28 08:24:55;;;;;;;;;;;5.60;99.90;;;;;;5098139;28;19924;-70
2022/03/28 08:27:20;;;;;;;;;;;5.60;99.90;;;;;;5116280;28;19924;-70
2022/03/28 08:29:46;;;;;;;;;;;5.70;99.90;;;;;;5097634;28;19928;-72
2022/03/28 08:32:11;;;;;;;;;;;5.70;99.90;;;;;;5116041;28;19931;-69
2022/03/28 08:34:37;;;;;;;;;;;5.80;99.90;;;;;;5116236;28;20371;-70
2022/03/28 08:37:03;;;;;;;;;;;7.10;99.90;;;;;;5116114;28;19997;-70
2022/03/28 08:39:28;;;;;;;;;;;5.80;99.90;;;;;;5116100;28;19923;-70
2022/03/28 08:41:55;;;;;;;;;;;5.90;99.90;;;;;;5115892;28;19935;-70
2022/03/28 08:44:21;;;;;;;;;;;6.10;99.90;;;;;;5097604;28;20349;-71
2022/03/28 08:46:47;;;;;;;;;;;6.00;99.90;;;;;;5097882;28;20011;-72
2022/03/28 08:49:13;;;;;;;;;;;5.70;99.90;;;;;;5097514;28;19924;-71
2022/03/28 08:51:39;;;;;;;;;;;7.30;99.90;;;;;;5115599;28;19931;-71
2022/03/28 08:54:05;;;;;;;;;;;4.60;99.90;;;;;;5115729;28;19924;-72
2022/03/28 08:56:30;;;;;;;;;;;6.10;99.90;;;;;;5115369;28;19989;-72
2022/03/28 08:58:56;;;;;;;;;;;6.20;99.90;;;;;;5097491;28;19924;-73
2022/03/28 09:01:22;;;;;;;;;;;7.10;99.90;;;;;;5115530;28;20359;-69
2022/03/28 09:03:48;;;;;;;;;;;6.30;99.90;;;;;;5115329;28;19924;-70
2022/03/28 09:06:34;;;;;;;;;;;6.40;99.90;;;;;;5115017;28;19928;-70
2022/03/28 09:09:12;;;;;;;;;;;6.40;99.90;;;;;;5114648;28;19980;-72
2022/03/28 09:11:39;;;;;;;;;;;6.40;99.90;;;;;;5097003;28;19931;-71
2022/03/28 09:14:06;;;;;;;;;;;6.40;99.90;;;;;;5115065;28;20014;-70
2022/03/28 09:16:34;;;;;;;;;;;6.40;99.90;;;;;;5114742;28;19927;-71
2022/03/28 09:19:08;;;;;;;;;;;6.40;99.90;;;;;;5114755;28;20393;-70
2022/03/28 09:21:34;;;;;;;;;;;6.40;99.90;;;;;;5115067;28;19924;-72
2022/03/28 09:24:03;;;;;;;;;;;6.40;99.90;;;;;;5114579;28;19923;-71
2022/03/28 09:26:30;;;;;;;;;;;6.50;99.90;;;;;;5114985;28;19924;-70
2022/03/28 09:29:01;;;;;;;;;;;6.50;99.90;;;;;;5096662;28;20015;-72
2022/03/28 09:31:32;;;;;;;;;;;6.60;99.90;;;;;;5096701;28;19923;-70
2022/03/28 09:33:58;;;;;;;;;;;6.60;99.90;;;;;;5114872;28;19947;-69
2022/03/28 09:36:43;;;;;;;;;;;6.70;99.90;;;;;;5114675;28;19928;-71
2022/03/28 09:39:11;;;;;;;;;;;6.70;99.90;;;;;;5096370;28;19923;-70
2022/03/28 09:41:38;;;;;;;;;;;6.70;99.90;;;;;;5114432;28;19931;-72
2022/03/28 09:44:07;;;;;;;;;;;6.70;99.90;;;;;;5114278;28;19941;-70
2022/03/28 09:46:34;;;;;;;;;;;6.80;99.90;;;;;;5114304;28;19924;-73
2022/03/28 09:49:00;;;;;;;;;;;6.80;99.90;;;;;;5096490;28;20010;-71
2022/03/28 09:51:27;;;;;;;;;;;6.90;99.90;;;;;;5114230;28;19924;-73
2022/03/28 09:53:54;;;;;;;;;;;6.90;99.90;;;;;;5114226;28;19983;-70
2022/03/28 09:56:21;;;;;;;;;;;7.00;99.90;;;;;;5114069;28;20417;-71
2022/03/28 09:59:04;;;;;;;;;;;7.00;99.90;;;;;;5113489;28;20194;-73
2022/03/28 10:01:32;;;;;;;;;;;7.00;99.90;;;;;;5113967;28;19931;-70
2022/03/28 10:04:05;;;;;;;;;;;7.00;99.90;;;;;;5096302;28;19970;-70
2022/03/28 10:06:31;;;;;;;;;;;7.00;99.90;;;;;;5114050;28;20018;-72
2022/03/28 10:08:58;;;;;;;;;;;7.10;99.90;;;;;;5113901;28;19981;-70
2022/03/28 10:11:25;;;;;;;;;;;7.10;99.90;;;;;;5114255;28;19943;-71
2022/03/28 10:13:52;;;;;;;;;;;7.10;99.90;;;;;;5114107;28;19928;-73
2022/03/28 10:16:18;;;;;;;;;;;7.10;99.90;;;;;;5114131;28;19924;-71
2022/03/28 10:18:45;;;;;;;;;;;7.20;99.90;;;;;;5114102;28;20026;-71
2022/03/28 10:21:19;;;;;;;;;;;7.30;99.90;;;;;;5113908;28;19931;-70
2022/03/28 10:23:55;;;;;;;;;;;7.30;99.90;;;;;;5095802;28;19977;-71
2022/03/28 10:26:25;;;;;;;;;;;7.30;99.90;;;;;;5113817;28;20383;-71
2022/03/28 10:28:59;;;;;;;;;;;7.30;99.90;;;;;;5114109;28;19930;-72
2022/03/28 10:31:26;;;;;;;;;;;7.40;99.90;;;;;;5113119;28;19946;-70
2022/03/28 10:33:54;;;;;;;;;;;7.50;99.90;;;;;;5113881;28;20019;-71
2022/03/28 10:36:32;;;;;;;;;;;7.50;99.90;;;;;;5113605;28;19924;-73
2022/03/28 10:39:17;;;;;;;;;;;7.50;99.90;;;;;;5095268;28;20298;-70
2022/03/28 10:41:44;;;;;;;;;;;7.60;99.90;;;;;;5095920;28;20030;-71
2022/03/28 10:44:10;;;;;;;;;;;7.60;99.90;;;;;;5113734;28;19924;-71
2022/03/28 10:46:37;;;;;;;;;;;7.60;99.90;;;;;;5113717;28;19972;-71
2022/03/28 10:49:05;;;;;;;;;;;7.70;99.90;;;;;;5095213;28;19923;-71
2022/03/28 10:51:32;;;;;;;;;;;7.80;99.90;;;;;;5113450;28;19923;-71
2022/03/28 10:54:05;;;;;;;;;;;7.80;99.90;;;;;;5113657;28;20023;-71
2022/03/28 10:56:38;;;;;;;;;;;7.90;99.90;;;;;;5113518;28;20283;-70
2022/03/28 10:59:06;;;;;;;;;;;7.90;99.90;;;;;;5113396;28;19934;-71
2022/03/28 11:01:33;;;;;;;;;;;7.90;99.90;;;;;;5117583;27;20373;-70
2022/03/28 11:04:01;;;;;;;;;;;7.90;99.90;;;;;;5115302;28;19931;-70
2022/03/28 11:06:49;;;;;;;;;;;8.00;99.90;;;;;;5133785;28;19923;-70
2022/03/28 11:09:36;;;;;;;;;;;8.10;99.90;;;;;;5115922;28;20018;-71
2022/03/28 11:12:06;;;;;;;;;;;8.10;99.90;;;;;;5116436;28;19924;-70
2022/03/28 11:14:39;;;;;;;;;;;8.10;99.90;;;;;;5134078;28;19946;-73
2022/03/28 11:17:19;;;;;;;;;;;8.20;99.90;;;;;;5133966;28;19934;-71
2022/03/28 11:20:04;;;;;;;;;;;8.20;99.90;;;;;;5133799;28;19923;-74
2022/03/28 11:22:50;;;;;;;;;;;8.20;99.90;;;;;;5133406;28;19973;-70
2022/03/28 11:25:36;;;;;;;;;;;8.30;99.90;;;;;;5115859;28;19924;-71
2022/03/28 11:28:04;;;;;;;;;;;8.30;99.90;;;;;;5115838;28;19923;-71
2022/03/28 11:30:31;;;;;;;;;;;8.40;99.90;;;;;;5133857;28;20425;-71
2022/03/28 11:32:58;;;;;;;;;;;8.40;99.90;;;;;;5133608;28;20329;-73
2022/03/28 11:35:28;;;;;;;;;;;8.40;99.90;;;;;;5133932;28;19923;-71
2022/03/28 11:37:55;;;;;;;;;;;8.50;99.90;;;;;;5115560;28;19923;-73
2022/03/28 11:40:21;;;;;;;;;;;8.60;99.90;;;;;;5133861;28;19924;-72
2022/03/28 11:42:50;;;;;;;;;;;8.70;99.90;;;;;;5136704;27;19930;-73
2022/03/28 11:45:18;;;;;;;;;;;8.80;99.90;;;;;;5137156;27;19968;-72
2022/03/28 11:47:52;;;;;;;;;;;8.80;99.90;;;;;;5137227;27;19938;-71
2022/03/28 11:50:18;;;;;;;;;;;8.70;99.90;;;;;;5135702;27;20100;-73
2022/03/28 11:52:50;;;;;;;;;;;8.80;99.90;;;;;;5137037;27;19963;-73
2022/03/28 11:55:18;;;;;;;;;;;8.90;99.90;;;;;;5136992;27;20395;-71
2022/03/28 12:00:34;;;;;;;;;;;9.00;99.90;;;;;;5137326;27;19924;-71
2022/03/28 12:03:03;;;;;;;;;;;9.10;99.90;;;;;;5136735;27;19923;-70
2022/03/28 12:05:38;;;;;;;;;;;9.10;99.90;;;;;;5137162;27;19976;-73
2022/03/28 12:08:09;;;;;;;;;;;9.20;99.90;;;;;;5152981;27;19927;-71
2022/03/28 12:10:36;;;;;;;;;;;9.20;99.90;;;;;;5136960;27;19934;-71
2022/03/28 12:13:05;;;;;;;;;;;9.20;99.90;;;;;;5136393;27;19930;-72
2022/03/28 12:15:34;;;;;;;;;;;9.30;99.90;;;;;;5136831;27;19923;-70
2022/03/28 12:18:02;;;;;;;;;;;9.40;99.90;;;;;;5118867;27;20024;-71
2022/03/28 12:20:31;;;;;;;;;;;9.40;99.90;;;;;;5136996;27;20024;-70
2022/03/28 12:22:58;;;;;;;;;;;9.50;99.90;;;;;;5118278;27;19923;-70
2022/03/28 12:25:30;;;;;;;;;;;9.60;99.90;;;;;;5118737;27;20357;-71
2022/03/28 12:27:58;;;;;;;;;;;9.60;99.90;;;;;;5136908;27;20298;-70
2022/03/28 12:30:29;;;;;;;;;;;9.60;99.90;;;;;;5136587;27;19927;-73
2022/03/28 12:32:56;;;;;;;;;;;9.70;99.90;;;;;;5136724;27;19927;-71
2022/03/28 12:35:23;;;;;;;;;;;9.70;99.90;;;;;;5136476;27;19956;-71
2022/03/28 12:38:03;;;;;;;;;;;9.90;99.90;;;;;;5136244;27;20317;-71
2022/03/28 12:40:31;;;;;;;;;;;9.80;99.90;;;;;;5136647;27;19927;-70
2022/03/28 12:42:59;;;;;;;;;;;9.90;99.90;;;;;;5136533;27;20374;-71
2022/03/28 12:45:26;;;;;;;;;;;9.80;99.90;;;;;;5118316;27;19927;-71
2022/03/28 12:47:56;;;;;;;;;;;9.80;99.90;;;;;;5136085;27;19970;-72
2022/03/28 12:50:26;;;;;;;;;;;9.80;99.90;;;;;;5118036;27;19923;-74
2022/03/28 12:53:07;;;;;;;;;;;9.80;99.90;;;;;;5117016;27;19986;-71
2022/03/28 12:55:34;;;;;;;;;;;9.90;99.90;;;;;;5135904;27;19923;-71
2022/03/28 12:58:02;;;;;;;;;;;9.90;99.90;;;;;;5118139;27;19924;-70
2022/03/28 13:00:30;;;;;;;;;;;10.00;99.90;;;;;;5135940;27;19923;-71
2022/03/28 13:03:01;;;;;;;;;;;10.20;99.90;;;;;;5117356;27;20405;-71
2022/03/28 13:05:28;;;;;;;;;;;10.20;99.90;;;;;;5135978;27;19927;-72
2022/03/28 13:08:08;;;;;;;;;;;10.20;99.90;;;;;;5135946;27;19924;-70
2022/03/28 13:10:36;;;;;;;;;;;10.20;99.90;;;;;;5136076;27;19924;-73
2022/03/28 13:13:03;;;;;;;;;;;10.20;99.90;;;;;;5135733;27;19931;-71
2022/03/28 13:15:32;;;;;;;;;;;10.30;99.90;;;;;;5135593;27;19924;-70
2022/03/28 13:18:09;;;;;;;;;;;10.30;99.90;;;;;;5135521;27;19924;-71
2022/03/28 13:20:37;;;;;;;;;;;10.40;99.90;;;;;;5117754;27;20409;-70
2022/03/28 13:23:04;;;;;;;;;;;10.40;99.90;;;;;;5134859;27;19924;-70
2022/03/28 13:25:41;;;;;;;;;;;10.50;99.90;;;;;;5135678;27;19968;-71
2022/03/28 13:28:14;;;;;;;;;;;10.50;99.90;;;;;;5117492;27;19928;-72
2022/03/28 13:30:48;;;;;;;;;;;10.50;99.90;;;;;;5135475;27;20343;-73
2022/03/28 13:33:15;;;;;;;;;;;10.60;99.90;;;;;;5135593;27;19934;-71
2022/03/28 13:35:43;;;;;;;;;;;10.50;99.90;;;;;;5117169;27;19930;-72
2022/03/28 13:38:12;;;;;;;;;;;10.50;99.90;;;;;;5135183;27;19924;-72
2022/03/28 13:40:39;;;;;;;;;;;10.50;99.90;;;;;;5135291;27;19938;-70
2022/03/28 13:43:06;;;;;;;;;;;10.50;99.90;;;;;;5135097;27;19923;-71
2022/03/28 13:45:33;;;;;;;;;;;10.40;99.90;;;;;;5117191;27;19924;-73
2022/03/28 13:48:02;;;;;;;;;;;10.40;99.90;;;;;;5116920;27;20305;-71
2022/03/28 13:50:30;;;;;;;;;;;10.40;99.90;;;;;;5117184;27;20378;-71
2022/03/28 13:53:15;;;;;;;;;;;10.40;99.90;;;;;;5116705;27;20366;-72
2022/03/28 13:55:42;;;;;;;;;;;10.40;99.90;;;;;;5116656;27;20419;-71
2022/03/28 13:58:10;;;;;;;;;;;10.50;99.90;;;;;;5135111;27;20010;-71
2022/03/28 14:00:37;;;;;;;;;;;10.40;99.90;;;;;;5134984;27;19946;-69
2022/03/28 14:03:06;;;;;;;;;;;10.30;99.90;;;;;;5116378;27;19981;-70
2022/03/28 14:05:33;;;;;;;;;;;11.10;99.90;;;;;;5134603;27;19977;-70
2022/03/28 14:08:00;;;;;;;;;;;10.20;99.90;;;;;;5134537;27;19924;-71
2022/03/28 14:10:27;;;;;;;;;;;10.30;99.90;;;;;;5133245;27;20398;-71
2022/03/28 14:12:55;;;;;;;;;;;10.20;99.90;;;;;;5134651;27;19931;-73
2022/03/28 14:15:22;;;;;;;;;;;10.20;99.90;;;;;;5116368;27;19931;-72
2022/03/28 14:17:49;;;;;;;;;;;10.20;99.90;;;;;;5116789;27;19924;-71
2022/03/28 14:20:18;;;;;;;;;;;10.20;99.90;;;;;;5134652;27;20445;-73
2022/03/28 14:22:44;;;;;;;;;;;10.20;99.90;;;;;;5134199;27;20427;-73
2022/03/28 14:25:11;;;;;;;;;;;10.20;99.90;;;;;;5116213;27;20039;-71
2022/03/28 14:27:37;;;;;;;;;;;10.20;99.90;;;;;;5116512;27;19930;-70
2022/03/28 14:30:07;;;;;;;;;;;10.20;99.90;;;;;;5134662;27;20013;-72
2022/03/28 14:32:34;;;;;;;;;;;10.10;99.90;;;;;;5134470;27;20402;-71